Time;durP1;ratioP1;P1;durP2;ratioP2;P2;SDS_P1;SDS_P2;PMS_P1;PMS_P2;Temp;Humidity;BMP_temperature;BMP_pressure;BME280_temperature;BME280_humidity;BME280_pressure;Samples;Min_cycle;Max_cycle;Signal;HPM_P1;HPM_P2
2021/12/24 00:00:48;;;;;;;48.25;25.50;;;;;;;4.57;100.00;100783.41;6224279;23;20013;-84
2021/12/24 00:03:14;;;;;;;69.50;34.78;;;;;;;4.53;100.00;100789.81;6222095;23;20020;-82
2021/12/24 00:05:40;;;;;;;62.45;32.00;;;;;;;4.57;100.00;100796.53;6195333;23;20012;-83
2021/12/24 00:08:07;;;;;;;54.17;27.95;;;;;;;4.83;100.00;100797.13;6221943;23;20008;-87
2021/12/24 00:10:35;;;;;;;50.85;25.58;;;;;;;4.89;100.00;100796.66;6221669;23;20004;-85
2021/12/24 00:13:06;;;;;;;47.42;25.50;;;;;;;4.95;100.00;100793.53;6221042;23;20015;-83
2021/12/24 00:18:30;;;;;;;48.40;25.02;;;;;;;4.87;100.00;100785.44;6222469;23;20009;-84
2021/12/24 00:37:08;;;;;;;48.42;24.92;;;;;;;4.92;100.00;100770.16;6194572;23;20335;-85
2021/12/24 00:39:36;;;;;;;46.13;24.98;;;;;;;4.90;100.00;100772.06;6226310;23;20034;-82
2021/12/24 00:42:01;;;;;;;52.05;26.05;;;;;;;4.69;100.00;100778.03;6190697;23;20478;-82
2021/12/24 00:44:27;;;;;;;47.53;26.77;;;;;;;4.81;100.00;100776.22;6220321;23;20017;-83
2021/12/24 00:46:52;;;;;;;49.22;25.52;;;;;;;5.00;100.00;100765.16;6221552;23;20092;-83
2021/12/24 00:49:18;;;;;;;46.50;25.25;;;;;;;5.14;100.00;100768.34;6222183;23;20017;-83
2021/12/24 00:52:07;;;;;;;47.15;25.55;;;;;;;5.03;100.00;100767.53;6221574;23;20093;-82
2021/12/24 00:57:26;;;;;;;50.60;26.52;;;;;;;4.92;100.00;100749.97;6220765;23;20044;-83
2021/12/24 00:59:55;;;;;;;46.90;25.80;;;;;;;4.82;100.00;100761.31;6196615;23;20447;-84
2021/12/24 01:02:22;;;;;;;47.60;26.10;;;;;;;4.75;100.00;100754.88;6222417;23;20004;-83
2021/12/24 01:04:50;;;;;;;47.40;25.92;;;;;;;4.81;100.00;100759.63;6195174;23;20474;-84
2021/12/24 01:07:17;;;;;;;49.58;27.25;;;;;;;4.68;100.00;100757.97;6194561;23;20027;-83
2021/12/24 01:09:43;;;;;;;49.03;24.98;;;;;;;4.80;100.00;100753.56;6195560;23;20009;-84
2021/12/24 01:12:09;;;;;;;47.15;25.50;;;;;;;4.93;100.00;100753.44;6198317;23;20005;-87
2021/12/24 01:14:35;;;;;;;49.20;25.98;;;;;;;5.03;100.00;100754.41;6218612;23;20051;-82
2021/12/24 01:17:55;;;;;;;50.45;26.52;;;;;;;5.15;100.00;100742.91;6220522;23;20008;-82
2021/12/24 01:19:52;;;;;;;50.20;27.05;;;;;;;5.03;100.00;100751.78;6184884;23;20046;-82
2021/12/24 01:25:18;;;;;;;50.03;27.10;;;;;;;5.02;100.00;100742.22;6194816;23;20016;-83
2021/12/24 01:38:49;;;;;;;53.75;28.05;;;;;;;5.32;100.00;100713.50;6196316;23;20012;-84
2021/12/24 01:42:41;;;;;;;49.42;26.98;;;;;;;5.21;100.00;100705.63;6220827;23;20408;-84
2021/12/24 01:44:07;;;;;;;49.65;27.52;;;;;;;5.29;100.00;100705.88;6182026;23;20071;-87
2021/12/24 01:46:33;;;;;;;59.67;31.35;;;;;;;5.09;100.00;100706.63;6221220;23;20005;-86
2021/12/24 01:48:58;;;;;;;60.67;32.10;;;;;;;4.90;100.00;100706.41;6193728;23;20099;-86
2021/12/24 01:51:25;;;;;;;65.35;32.00;;;;;;;4.71;100.00;100709.63;6195190;23;20040;-89
2021/12/24 01:53:53;;;;;;;65.57;34.38;;;;;;;4.62;100.00;100708.59;6197347;23;20317;-86
2021/12/24 01:56:19;;;;;;;70.90;35.95;;;;;;;4.78;100.00;100678.50;6196162;23;20012;-87
2021/12/24 01:58:45;;;;;;;61.30;32.55;;;;;;;5.00;100.00;100679.31;6167765;23;20016;-82
2021/12/24 02:01:10;;;;;;;58.75;31.40;;;;;;;4.63;100.00;100689.25;6193873;23;20401;-88
2021/12/24 02:03:36;;;;;;;67.38;34.85;;;;;;;4.46;100.00;100678.41;6232438;23;20008;-83
2021/12/24 02:06:02;;;;;;;68.10;34.40;;;;;;;4.55;100.00;100670.63;6241399;23;20068;-84
2021/12/24 02:08:28;;;;;;;74.85;36.90;;;;;;;4.49;100.00;100676.38;6214480;23;19995;-85
2021/12/24 02:10:56;;;;;;;84.82;37.92;;;;;;;4.34;100.00;100667.06;6213847;23;20005;-85
2021/12/24 02:13:22;;;;;;;75.57;38.67;;;;;;;4.36;100.00;100667.78;6215235;23;20083;-83
2021/12/24 02:29:15;;;;;;;70.05;37.25;;;;;;;4.54;100.00;100652.41;6216281;23;20009;-86
2021/12/24 02:31:41;;;;;;;71.93;35.70;;;;;;;4.65;100.00;100647.13;6216728;23;20036;-83
2021/12/24 02:34:06;;;;;;;69.75;35.92;;;;;;;4.69;100.00;100646.78;6240723;23;20071;-82
2021/12/24 02:36:32;;;;;;;79.65;38.42;;;;;;;4.46;100.00;100637.25;6235698;23;20008;-81
2021/12/24 02:38:57;;;;;;;75.38;37.42;;;;;;;4.55;100.00;100633.91;6242015;23;19999;-83
2021/12/24 02:41:23;;;;;;;75.47;38.45;;;;;;;4.52;100.00;100638.56;6240033;23;20065;-82
2021/12/24 02:43:49;;;;;;;71.47;36.83;;;;;;;4.57;100.00;100647.72;6240128;23;20039;-81
2021/12/24 02:46:39;;;;;;;67.90;35.45;;;;;;;4.73;100.00;100651.78;6240875;22;20055;-81
2021/12/24 02:49:11;;;;;;;69.70;34.50;;;;;;;4.90;100.00;100649.50;6241600;23;20032;-82
2021/12/24 02:54:22;;;;;;;70.28;35.40;;;;;;;4.92;100.00;100639.69;6240226;23;20251;-82
2021/12/24 02:56:52;;;;;;;69.13;34.72;;;;;;;5.10;100.00;100642.63;6239922;23;20072;-85
2021/12/24 02:59:24;;;;;;;64.20;33.15;;;;;;;4.95;100.00;100628.09;6241104;23;20008;-83
2021/12/24 03:01:54;;;;;;;69.55;35.65;;;;;;;5.03;100.00;100639.66;6214771;23;20016;-83
2021/12/24 03:04:20;;;;;;;69.43;34.17;;;;;;;5.01;100.00;100635.47;6240370;23;20008;-81
2021/12/24 03:06:49;;;;;;;69.30;36.05;;;;;;;5.13;100.00;100631.88;6210890;23;20092;-81
2021/12/24 03:09:17;;;;;;;76.13;35.67;;;;;;;5.12;100.00;100635.44;6194176;23;20013;-82
2021/12/24 03:11:44;;;;;;;66.38;35.47;;;;;;;5.22;100.00;100646.88;6191616;23;20013;-83
2021/12/24 03:14:10;;;;;;;68.25;35.25;;;;;;;5.29;100.00;100640.16;6192193;23;20103;-86
2021/12/24 03:16:38;;;;;;;67.53;34.85;;;;;;;5.33;100.00;100640.75;6191695;23;20447;-83
2021/12/24 03:19:04;;;;;;;65.15;35.45;;;;;;;5.33;100.00;100646.84;6167302;23;20036;-82
2021/12/24 03:21:38;;;;;;;71.85;36.90;;;;;;;5.18;100.00;100643.66;6219819;23;20022;-83
2021/12/24 03:26:45;;;;;;;65.65;35.17;;;;;;;5.27;100.00;100652.56;6220858;23;20070;-82
2021/12/24 03:29:12;;;;;;;71.68;36.50;;;;;;;5.32;100.00;100639.06;6192474;23;20063;-83
2021/12/24 03:31:46;;;;;;;68.85;35.53;;;;;;;5.27;100.00;100636.81;6221313;23;20036;-82
2021/12/24 03:34:15;;;;;;;66.00;35.45;;;;;;;5.40;100.00;100631.41;6220926;23;20383;-84
2021/12/24 03:36:42;;;;;;;67.47;35.00;;;;;;;5.13;100.00;100635.34;6193379;23;20448;-83
2021/12/24 03:39:11;;;;;;;64.75;35.55;;;;;;;5.17;100.00;100631.47;6191828;23;20415;-82
2021/12/24 03:41:37;;;;;;;70.53;35.80;;;;;;;5.32;100.00;100639.06;6217903;23;20036;-82
2021/12/24 03:44:06;;;;;;;68.22;35.33;;;;;;;5.36;100.00;100638.72;6218082;23;20009;-84
2021/12/24 03:46:47;;;;;;;63.83;34.70;;;;;;;5.61;100.00;100634.88;6190136;23;20005;-85
2021/12/24 03:49:23;;;;;;;65.63;33.92;;;;;;;5.70;100.00;100629.69;6189436;23;20027;-84
2021/12/24 03:51:58;;;;;;;64.63;33.47;;;;;;;5.78;100.00;100625.56;6216988;23;20013;-83
2021/12/24 03:57:10;;;;;;;64.00;34.13;;;;;;;5.67;100.00;100615.94;6189791;23;20067;-83
2021/12/24 03:59:56;;;;;;;64.18;35.33;;;;;;;5.28;100.00;100606.13;6194718;23;20070;-83
2021/12/24 04:02:51;;;;;;;63.50;33.47;;;;;;;5.34;100.00;100601.19;6228280;23;20020;-90
2021/12/24 04:05:43;;;;;;;64.00;35.25;;;;;;;5.48;100.00;100598.25;6191439;23;20016;-87
2021/12/24 04:08:28;;;;;;;67.38;35.88;;;;;;;5.48;100.00;100614.03;6226274;23;20151;-89
2021/12/24 04:11:16;;;;;;;64.57;35.25;;;;;;;5.38;100.00;100597.34;6196116;23;20013;-89
2021/12/24 04:13:43;;;;;;;63.85;35.17;;;;;;;5.50;100.00;100612.09;6217474;23;20021;-87
2021/12/24 04:16:10;;;;;;;62.17;34.35;;;;;;;5.29;100.00;100594.66;6220250;23;20000;-89
2021/12/24 04:19:02;;;;;;;58.70;31.73;;;;;;;5.28;100.00;100590.34;6192965;23;20440;-88
2021/12/24 04:26:56;;;;;;;54.30;29.58;;;;;;;4.97;100.00;100565.78;6196828;23;20041;-90
2021/12/24 04:29:22;;;;;;;58.30;30.38;;;;;;;4.90;100.00;100565.47;6196048;23;20008;-89
2021/12/24 04:31:56;;;;;;;59.40;30.73;;;;;;;4.93;100.00;100559.94;6193555;23;20091;-87
2021/12/24 04:34:45;;;;;;;58.47;29.35;;;;;;;5.02;100.00;100558.34;6219051;23;20019;-88
2021/12/24 04:51:14;;;;;;;51.08;27.63;;;;;;;5.10;100.00;100566.47;6195051;23;20016;-86
2021/12/24 05:02:24;;;;;;;50.17;26.92;;;;;;;5.25;100.00;100565.19;6194933;23;20063;-83
2021/12/24 05:04:55;;;;;;;47.20;25.20;;;;;;;5.18;100.00;100564.00;6193571;23;20019;-84
2021/12/24 05:10:03;;;;;;;54.45;28.38;;;;;;;5.22;100.00;100555.75;6198712;23;20012;-91
2021/12/24 05:12:34;;;;;;;47.47;26.25;;;;;;;5.31;100.00;100548.06;6189494;23;20491;-90
2021/12/24 05:15:10;;;;;;;49.92;26.50;;;;;;;5.40;100.00;100532.34;6189754;23;20096;-81
2021/12/24 05:23:45;;;;;;;51.75;26.42;;;;;;;5.26;100.00;100540.56;6209950;23;20016;-81
2021/12/24 05:26:13;;;;;;;53.90;28.65;;;;;;;5.15;100.00;100524.88;6209284;23;20016;-83
2021/12/24 05:28:39;;;;;;;52.08;27.35;;;;;;;5.07;100.00;100519.44;6194626;23;20432;-83
2021/12/24 05:31:04;;;;;;;52.72;29.13;;;;;;;5.01;100.00;100520.75;6189525;23;20457;-82
2021/12/24 05:33:30;;;;;;;55.15;29.88;;;;;;;5.03;100.00;100518.00;6189184;23;20023;-85
2021/12/24 05:35:56;;;;;;;52.58;29.65;;;;;;;4.99;100.00;100511.34;6216561;23;20008;-83
2021/12/24 05:38:22;;;;;;;53.20;29.90;;;;;;;5.21;100.00;100505.97;6217247;23;20309;-87
2021/12/24 05:40:48;;;;;;;55.50;30.55;;;;;;;5.29;100.00;100513.22;6190752;23;20012;-89
2021/12/24 05:43:13;;;;;;;55.78;30.92;;;;;;;5.31;100.00;100517.38;6192118;23;20035;-88
2021/12/24 05:45:39;;;;;;;56.38;30.08;;;;;;;5.50;100.00;100512.22;6191505;23;20009;-88
2021/12/24 05:48:21;;;;;;;48.90;26.92;;;;;;;5.66;100.00;100523.13;6190548;23;20005;-88
2021/12/24 05:50:48;;;;;;;55.05;29.42;;;;;;;5.58;100.00;100527.34;6190487;23;20040;-86
2021/12/24 05:53:33;;;;;;;52.38;27.42;;;;;;;5.59;100.00;100535.13;6216218;23;20079;-86
2021/12/24 05:56:07;;;;;;;53.30;29.58;;;;;;;5.74;100.00;100536.44;6188892;23;20432;-87
2021/12/24 05:58:33;;;;;;;51.03;29.08;;;;;;;5.82;100.00;100533.16;6189390;23;20023;-85
2021/12/24 06:01:02;;;;;;;57.40;31.45;;;;;;;5.48;100.00;100529.94;6190226;23;20012;-86
2021/12/24 06:03:38;;;;;;;56.40;31.52;;;;;;;5.47;100.00;100536.13;6191522;23;20050;-85
2021/12/24 06:06:03;;;;;;;57.58;32.05;;;;;;;5.49;100.00;100534.22;6164709;23;20408;-87
2021/12/24 06:08:29;;;;;;;65.50;33.90;;;;;;;5.42;100.00;100538.34;6215219;23;20440;-86
2021/12/24 06:10:55;;;;;;;58.42;31.70;;;;;;;5.49;100.00;100552.63;6215839;23;20012;-84
2021/12/24 06:13:24;;;;;;;60.38;32.58;;;;;;;5.48;100.00;100535.19;6216616;23;20009;-82
2021/12/24 06:15:50;;;;;;;62.38;32.60;;;;;;;5.48;100.00;100545.69;6213646;23;20427;-84
2021/12/24 06:18:23;;;;;;;56.42;32.95;;;;;;;5.40;100.00;100534.97;6216968;23;20046;-84
2021/12/24 06:20:49;;;;;;;57.95;31.40;;;;;;;5.31;100.00;100533.13;6190747;23;20016;-87
2021/12/24 06:23:15;;;;;;;62.10;33.55;;;;;;;5.32;100.00;100524.28;6217304;23;20015;-86
2021/12/24 06:25:41;;;;;;;60.17;32.67;;;;;;;5.43;100.00;100531.28;6217049;23;20004;-85
2021/12/24 06:28:06;;;;;;;68.63;33.58;;;;;;;5.31;100.00;100527.88;6219111;23;20052;-86
2021/12/24 06:30:32;;;;;;;62.45;33.25;;;;;;;5.29;100.00;100515.84;6218672;23;20011;-86
2021/12/24 06:32:59;;;;;;;60.45;33.70;;;;;;;5.44;100.00;100523.25;6216926;23;20058;-88
2021/12/24 06:35:26;;;;;;;60.08;33.22;;;;;;;5.55;100.00;100520.56;6217205;23;20009;-85
2021/12/24 06:37:54;;;;;;;61.08;34.20;;;;;;;5.39;100.00;100514.94;6219209;23;20015;-85
2021/12/24 06:40:20;;;;;;;61.65;34.15;;;;;;;5.38;100.00;100518.53;6190907;23;20448;-85
2021/12/24 06:42:45;;;;;;;64.97;35.72;;;;;;;5.32;100.00;100521.66;6191185;23;20027;-85
2021/12/24 06:45:11;;;;;;;62.83;35.00;;;;;;;5.43;100.00;100526.03;6217744;23;20394;-84
2021/12/24 06:47:37;;;;;;;66.20;35.72;;;;;;;5.50;100.00;100528.00;6191500;23;20004;-85
2021/12/24 06:50:04;;;;;;;58.50;33.20;;;;;;;5.48;100.00;100524.66;6217148;23;20005;-87
2021/12/24 06:52:29;;;;;;;59.08;33.03;;;;;;;5.49;100.00;100515.84;6216630;23;20008;-84
2021/12/24 06:54:55;;;;;;;58.90;32.90;;;;;;;5.63;100.00;100533.88;6217154;23;20020;-85
2021/12/24 06:57:24;;;;;;;67.25;35.60;;;;;;;5.55;100.00;100525.81;6191084;23;20013;-84
2021/12/24 06:59:49;;;;;;;63.60;35.03;;;;;;;5.53;100.00;100517.25;6190558;23;20339;-86
2021/12/24 07:02:15;;;;;;;64.45;34.17;;;;;;;5.71;100.00;100513.03;6189571;23;20095;-82
2021/12/24 07:04:40;;;;;;;62.92;33.70;;;;;;;5.58;100.00;100528.19;6216625;23;20341;-81
2021/12/24 07:07:06;;;;;;;63.63;35.15;;;;;;;5.34;100.00;100517.09;6190646;23;20097;-85
2021/12/24 07:09:32;;;;;;;65.60;35.95;;;;;;;5.51;100.00;100524.41;6216872;23;20420;-87
2021/12/24 07:11:57;;;;;;;67.38;36.63;;;;;;;5.53;100.00;100524.28;6190097;23;20015;-87
2021/12/24 07:14:25;;;;;;;69.15;36.60;;;;;;;5.44;100.00;100518.00;6216813;23;20371;-84
2021/12/24 07:16:51;;;;;;;71.30;39.15;;;;;;;5.63;100.00;100528.63;6216498;23;20387;-85
2021/12/24 07:19:17;;;;;;;76.40;39.25;;;;;;;5.51;100.00;100521.78;6216513;23;20008;-85
2021/12/24 07:21:42;;;;;;;62.72;36.10;;;;;;;5.62;100.00;100515.63;6217212;23;20436;-86
2021/12/24 07:24:12;;;;;;;69.18;38.28;;;;;;;5.69;100.00;100522.03;6216273;23;20008;-82
2021/12/24 07:26:37;;;;;;;69.28;39.08;;;;;;;5.48;100.00;100519.41;6216165;23;20081;-85
2021/12/24 07:29:03;;;;;;;67.65;36.67;;;;;;;5.42;100.00;100525.19;6216464;23;20040;-85
2021/12/24 07:31:28;;;;;;;67.55;36.65;;;;;;;5.69;100.00;100533.38;6163798;23;20005;-82
2021/12/24 07:33:54;;;;;;;67.45;37.25;;;;;;;5.59;100.00;100519.34;6217560;23;20518;-84
2021/12/24 07:36:20;;;;;;;68.45;38.20;;;;;;;5.42;100.00;100517.31;6222364;23;20017;-83
2021/12/24 07:38:46;;;;;;;74.03;39.45;;;;;;;5.44;100.00;100528.50;6223894;23;20012;-84
2021/12/24 07:41:14;;;;;;;70.50;38.40;;;;;;;5.49;100.00;100513.19;6231496;23;20092;-86
2021/12/24 07:43:40;;;;;;;73.22;38.47;;;;;;;5.20;100.00;100515.63;6231795;23;20044;-84
2021/12/24 07:46:06;;;;;;;68.45;38.17;;;;;;;5.36;100.00;100517.00;6203206;23;20013;-85
2021/12/24 07:48:33;;;;;;;80.95;41.25;;;;;;;5.20;100.00;100509.56;6219900;23;20009;-85
2021/12/24 07:53:26;;;;;;;76.13;42.28;;;;;;;5.15;100.00;100506.47;6217764;23;20062;-82
2021/12/24 07:55:56;;;;;;;68.00;38.33;;;;;;;5.10;100.00;100495.53;6216647;23;20435;-81
2021/12/24 07:58:22;;;;;;;75.88;41.33;;;;;;;5.00;100.00;100502.50;6190175;23;20015;-80
2021/12/24 08:00:48;;;;;;;77.95;40.80;;;;;;;5.04;99.96;100502.09;6215727;23;20516;-82
2021/12/24 08:03:37;;;;;;;77.10;41.47;;;;;;;5.09;99.69;100497.31;6218647;23;20102;-82
2021/12/24 08:06:02;;;;;;;74.28;41.92;;;;;;;5.12;99.80;100489.19;6216733;23;20102;-83
2021/12/24 08:08:28;;;;;;;76.00;41.83;;;;;;;5.14;100.00;100489.03;6208395;23;20001;-80
2021/12/24 08:10:54;;;;;;;73.82;41.15;;;;;;;5.13;100.00;100485.59;6214798;23;20008;-82
2021/12/24 08:13:41;;;;;;;78.20;41.58;;;;;;;5.20;99.35;100489.34;6215756;23;20439;-81
2021/12/24 08:16:06;;;;;;;81.70;42.92;;;;;;;5.25;99.57;100486.34;6216721;23;20084;-82
2021/12/24 08:18:32;;;;;;;75.78;40.95;;;;;;;5.20;99.71;100485.91;6218641;23;20064;-83
2021/12/24 08:20:58;;;;;;;79.63;42.42;;;;;;;5.19;100.00;100486.88;6219724;23;20059;-80
2021/12/24 08:23:23;;;;;;;78.72;42.38;;;;;;;5.16;100.00;100487.13;6167898;23;20009;-80
2021/12/24 08:25:58;;;;;;;88.53;45.03;;;;;;;5.15;100.00;100483.66;6219445;23;20335;-83
2021/12/24 08:28:24;;;;;;;78.18;42.25;;;;;;;5.20;100.00;100483.28;6217982;23;20353;-82
2021/12/24 08:30:49;;;;;;;83.28;42.05;;;;;;;5.42;100.00;100477.88;6217813;23;20007;-81
2021/12/24 08:33:16;;;;;;;78.47;42.03;;;;;;;5.49;99.58;100475.56;6191182;23;20020;-84
2021/12/24 08:35:42;;;;;;;77.15;41.83;;;;;;;5.36;100.00;100482.81;6191175;23;20016;-83
2021/12/24 08:38:07;;;;;;;83.50;42.85;;;;;;;5.32;100.00;100486.66;6191412;23;20008;-81
2021/12/24 08:40:33;;;;;;;82.00;43.60;;;;;;;5.42;100.00;100477.88;6219138;23;20008;-83
2021/12/24 08:43:00;;;;;;;86.40;43.15;;;;;;;5.29;100.00;100481.69;6221613;23;20056;-84
2021/12/24 08:45:31;;;;;;;73.22;42.08;;;;;;;5.29;100.00;100476.41;6221930;23;20020;-83
2021/12/24 08:47:57;;;;;;;76.00;42.67;;;;;;;5.23;100.00;100467.28;6221944;23;20008;-84
2021/12/24 08:50:23;;;;;;;75.88;41.97;;;;;;;5.29;100.00;100461.50;6223586;23;20020;-81
2021/12/24 08:52:48;;;;;;;85.82;44.33;;;;;;;5.24;100.00;100468.09;6221291;23;20004;-82
2021/12/24 08:55:15;;;;;;;87.60;46.45;;;;;;;5.24;100.00;100473.38;6219501;23;20339;-84
2021/12/24 08:57:42;;;;;;;86.35;45.58;;;;;;;5.19;100.00;100473.75;6219652;23;20028;-81
2021/12/24 09:00:11;;;;;;;79.03;43.53;;;;;;;5.29;100.00;100477.25;6218483;23;20092;-84
2021/12/24 09:02:37;;;;;;;80.82;44.88;;;;;;;5.34;100.00;100484.72;6216546;23;20371;-81
2021/12/24 09:05:08;;;;;;;81.40;43.53;;;;;;;5.29;100.00;100476.41;6216651;23;20063;-82
2021/12/24 09:07:34;;;;;;;86.05;45.58;;;;;;;5.42;100.00;100464.75;6217965;23;20017;-82
2021/12/24 09:09:59;;;;;;;82.00;45.47;;;;;;;5.41;100.00;100476.22;6217490;23;20012;-82
2021/12/24 09:12:25;;;;;;;88.18;47.05;;;;;;;5.37;100.00;100458.22;6216341;23;20032;-82
2021/12/24 09:14:53;;;;;;;85.50;44.05;;;;;;;5.29;100.00;100458.88;6216721;23;20008;-83
2021/12/24 09:17:21;;;;;;;91.70;46.67;;;;;;;5.33;100.00;100460.28;6216644;23;20432;-87
2021/12/24 09:19:50;;;;;;;84.75;46.80;;;;;;;5.49;100.00;100463.25;6217915;23;20051;-84
2021/12/24 09:22:19;;;;;;;89.82;47.85;;;;;;;5.45;100.00;100467.09;6191245;23;20019;-85
2021/12/24 09:24:50;;;;;;;91.28;48.40;;;;;;;5.42;100.00;100456.03;6216939;23;20020;-87
2021/12/24 09:27:16;;;;;;;88.57;48.15;;;;;;;5.44;100.00;100464.59;6217818;23;20012;-83
2021/12/24 09:29:42;;;;;;;84.32;46.47;;;;;;;5.39;100.00;100470.25;6217623;23;20031;-85
2021/12/24 09:32:09;;;;;;;87.40;47.10;;;;;;;5.42;100.00;100467.38;6191606;23;20062;-84
2021/12/24 09:34:35;;;;;;;88.57;47.25;;;;;;;5.45;100.00;100467.09;6217485;23;20387;-84
2021/12/24 09:37:01;;;;;;;87.00;47.90;;;;;;;5.54;100.00;100466.31;6190407;23;20017;-83
2021/12/24 09:39:26;;;;;;;84.57;46.75;;;;;;;5.80;100.00;100455.38;6216984;23;20004;-87
2021/12/24 09:41:52;;;;;;;85.18;46.85;;;;;;;5.59;100.00;100469.41;6225518;23;20013;-87
2021/12/24 09:44:18;;;;;;;86.07;46.08;;;;;;;5.72;100.00;100475.25;6223361;23;20059;-85
2021/12/24 09:46:43;;;;;;;93.00;50.78;;;;;;;5.53;100.00;100476.97;6222763;23;20077;-85
2021/12/24 09:49:13;;;;;;;96.28;49.78;;;;;;;5.47;100.00;100475.69;6229089;23;20044;-85
2021/12/24 09:51:42;;;;;;;98.65;50.42;;;;;;;5.30;100.00;100492.06;6197992;23;20444;-84
2021/12/24 09:54:11;;;;;;;98.70;52.10;;;;;;;5.25;100.00;100486.34;6174144;23;20016;-86
2021/12/24 09:56:37;;;;;;;98.95;50.92;;;;;;;5.21;100.00;100484.94;6218918;23;20012;-86
2021/12/24 09:59:02;;;;;;;97.93;50.72;;;;;;;5.27;100.00;100489.66;6218317;23;20364;-83
2021/12/24 10:01:38;;;;;;;100.72;51.10;;;;;;;5.24;100.00;100479.41;6192508;23;20072;-85
2021/12/24 10:04:08;;;;;;;96.50;50.17;;;;;;;5.17;100.00;100483.56;6191630;23;20440;-84
2021/12/24 10:06:39;;;;;;;101.35;52.08;;;;;;;5.17;100.00;100499.31;6166604;23;20016;-88
2021/12/24 10:09:12;;;;;;;100.05;52.05;;;;;;;5.12;100.00;100480.47;6218862;23;20112;-85
2021/12/24 10:11:49;;;;;;;93.25;49.13;;;;;;;5.34;100.00;100490.00;6218888;23;20008;-88
2021/12/24 10:14:18;;;;;;;97.95;50.10;;;;;;;5.34;100.00;100480.31;6166922;23;20383;-87
2021/12/24 10:16:45;;;;;;;97.05;49.67;;;;;;;5.18;100.00;100477.31;6195340;23;20383;-92
2021/12/24 10:29:49;;;;;;;88.18;47.47;;;;;;;5.16;100.00;100466.13;6177150;23;20104;-90
2021/12/24 10:32:18;;;;;;;88.57;44.78;;;;;;;5.30;100.00;100460.53;6186418;22;20043;-88
2021/12/24 10:41:06;;;;;;;98.90;49.92;;;;;;;5.16;100.00;100439.84;6254135;22;20020;-85
2021/12/24 10:43:39;;;;;;;103.78;51.70;;;;;;;4.93;100.00;100433.06;6242882;22;20051;-90
2021/12/24 10:46:24;;;;;;;98.40;53.33;;;;;;;5.00;100.00;100436.84;6298605;22;20016;-90
2021/12/24 10:50:13;;;;;;;99.13;50.67;;;;;;;4.87;100.00;100426.50;6291740;22;20040;-87
2021/12/24 10:53:11;;;;;;;90.03;51.92;;;;;;;4.94;100.00;100414.53;6241210;23;19996;-85
2021/12/24 10:56:10;;;;;;;95.60;52.47;;;;;;;5.12;100.00;100425.31;6241835;23;20016;-84
2021/12/24 11:47:41;;;;;;;126.63;61.90;;;;;;;4.83;100.00;100362.13;6282660;22;20266;-86
2021/12/24 11:50:45;;;;;;;126.93;64.60;;;;;;;4.80;100.00;100365.00;6209785;23;20021;-87
2021/12/24 12:49:44;;;;;;;123.07;61.00;;;;;;;5.11;100.00;100294.91;6233083;22;20028;-85
2021/12/24 12:52:38;;;;;;;118.57;60.13;;;;;;;4.99;100.00;100291.56;6270584;23;20008;-84
2021/12/24 12:55:51;;;;;;;117.35;59.92;;;;;;;4.93;100.00;100286.84;6269805;23;20004;-88
2021/12/24 12:59:40;;;;;;;125.55;60.92;;;;;;;4.93;100.00;100286.84;6188331;23;20017;-86
2021/12/24 13:03:18;;;;;;;127.00;61.15;;;;;;;4.92;100.00;100286.97;6261824;22;20031;-88
2021/12/24 13:44:11;;;;;;;100.80;47.93;;;;;;;5.39;100.00;100254.78;6266390;22;20270;-85
2021/12/24 13:54:32;;;;;;;131.10;65.93;;;;;;;5.00;100.00;100250.38;6250039;22;20004;-88
2021/12/24 13:57:17;;;;;;;130.05;66.03;;;;;;;5.01;100.00;100241.53;6306897;22;20031;-83
2021/12/24 14:00:37;;;;;;;120.40;63.35;;;;;;;5.22;100.00;100244.91;6226648;22;20000;-87
2021/12/24 14:03:11;;;;;;;127.15;64.70;;;;;;;5.17;100.00;100241.88;6153642;23;20045;-88
2021/12/24 14:06:36;;;;;;;124.03;63.25;;;;;;;5.19;100.00;100246.03;6237283;22;20014;-85
2021/12/24 14:09:41;;;;;;;125.32;64.45;;;;;;;5.37;100.00;100263.78;6264114;22;20050;-84
2021/12/24 14:26:18;;;;;;;134.00;67.07;;;;;;;5.13;100.00;100256.25;6211746;23;20394;-85
2021/12/24 14:29:18;;;;;;;137.32;69.63;;;;;;;4.81;100.00;100238.00;6269844;22;19995;-82
2021/12/24 14:38:40;;;;;;;115.17;55.10;;;;;;;4.83;100.00;100243.13;6290006;22;20019;-85
2021/12/24 14:56:08;;;;;;;130.82;64.18;;;;;;;5.06;100.00;100245.44;6221510;22;20016;-85
2021/12/24 14:58:41;;;;;;;122.68;64.45;;;;;;;5.16;100.00;100240.19;6296167;22;20015;-85
2021/12/24 15:01:10;;;;;;;124.28;62.40;;;;;;;5.51;100.00;100231.81;6266714;22;20030;-84
2021/12/24 15:03:52;;;;;;;124.68;63.95;;;;;;;5.33;100.00;100233.47;6263900;22;20473;-85
2021/12/24 15:06:45;;;;;;;118.55;61.67;;;;;;;5.43;100.00;100245.66;6298649;22;20014;-84
2021/12/24 15:09:20;;;;;;;126.55;63.58;;;;;;;5.39;100.00;100241.63;6286978;22;20022;-82
2021/12/24 15:12:22;;;;;;;125.65;63.38;;;;;;;5.35;100.00;100240.25;6270004;22;20018;-85
2021/12/24 15:14:58;;;;;;;133.65;66.22;;;;;;;5.46;100.00;100232.25;6128141;23;20021;-84
2021/12/24 15:20:54;;;;;;;124.75;63.05;;;;;;;5.63;100.00;100234.16;6180199;23;20022;-84
2021/12/24 15:23:53;;;;;;;119.97;61.83;;;;;;;5.74;100.00;100231.41;6160203;22;20032;-83
2021/12/24 15:26:32;;;;;;;120.72;62.08;;;;;;;5.53;100.00;100241.25;6265786;23;20012;-83
2021/12/24 15:29:55;;;;;;;119.10;60.55;;;;;;;5.66;100.00;100231.28;6264347;23;20007;-88
2021/12/24 15:35:53;;;;;;;108.47;57.90;;;;;;;5.78;100.00;100241.66;6226619;22;20104;-84
2021/12/24 15:38:25;;;;;;;112.60;59.67;;;;;;;6.06;100.00;100246.13;6175783;23;20039;-83
2021/12/24 15:41:13;;;;;;;111.85;59.35;;;;;;;5.95;100.00;100238.38;6200007;23;20008;-86
2021/12/24 15:43:50;;;;;;;114.15;59.85;;;;;;;5.71;100.00;100239.59;6226033;23;20096;-85
2021/12/24 15:46:18;;;;;;;118.53;60.53;;;;;;;5.55;100.00;100233.22;6175372;23;20009;-85
2021/12/24 15:48:59;;;;;;;116.57;60.72;;;;;;;5.42;100.00;100236.09;6204622;23;20055;-86
2021/12/24 15:51:25;;;;;;;116.40;61.10;;;;;;;5.60;100.00;100236.28;6200638;23;20008;-85
2021/12/24 15:54:43;;;;;;;122.53;62.20;;;;;;;5.63;100.00;100234.16;6199953;23;20008;-85
2021/12/24 15:57:11;;;;;;;120.00;59.78;;;;;;;5.78;100.00;100220.63;6207528;23;20339;-85
2021/12/24 15:59:38;;;;;;;118.28;60.08;;;;;;;5.54;100.00;100213.97;6200930;23;20064;-84
2021/12/24 16:02:10;;;;;;;114.28;60.75;;;;;;;5.37;100.00;100219.91;6197818;23;20008;-83
2021/12/24 16:04:36;;;;;;;113.80;59.30;;;;;;;5.34;100.00;100219.34;6195050;23;20011;-84
2021/12/24 16:07:07;;;;;;;122.68;64.18;;;;;;;5.26;100.00;100203.44;6221094;23;20013;-84
2021/12/24 16:09:35;;;;;;;118.07;62.05;;;;;;;5.39;100.00;100210.09;6173347;23;20013;-81
2021/12/24 16:12:27;;;;;;;116.35;61.60;;;;;;;5.25;100.00;100207.88;6203584;22;20035;-90
2021/12/24 16:14:56;;;;;;;128.50;64.00;;;;;;;5.24;100.00;100200.94;6284302;22;20019;-88
2021/12/24 16:17:23;;;;;;;115.93;59.38;;;;;;;5.19;100.00;100200.53;6231461;22;20012;-89
2021/12/24 16:19:52;;;;;;;128.15;64.05;;;;;;;5.07;100.00;100194.53;6286837;22;20058;-90
2021/12/24 16:22:20;;;;;;;122.38;61.83;;;;;;;5.06;100.00;100197.31;6285607;22;20350;-90
2021/12/24 16:24:46;;;;;;;124.82;64.22;;;;;;;5.01;100.00;100205.59;6284407;22;20090;-86
2021/12/24 16:27:13;;;;;;;124.47;62.60;;;;;;;5.06;100.00;100208.66;6280963;22;20006;-83
2021/12/24 16:29:57;;;;;;;125.82;63.05;;;;;;;5.20;100.00;100207.44;6236894;22;20023;-87
2021/12/24 16:32:31;;;;;;;127.88;64.47;;;;;;;4.91;100.00;100193.41;6291303;22;20061;-88
2021/12/24 16:35:01;;;;;;;134.27;66.18;;;;;;;5.03;100.00;100192.34;6268939;22;20019;-89
2021/12/24 16:37:34;;;;;;;127.45;64.50;;;;;;;5.01;100.00;100183.75;6255363;22;20011;-91